Sunday, January 21, 2018, 8:38 PM GMT
Back to Local

CYWA, Petawawa, Ont.

Location: , , Canada Lat: 45.95
Local Time: 8:38 PM GMT (20:38 GMT) Lon: -77.317
Time Zone: GMT Elev: 426 ft

Show me the last for .
Show Decoded

2018-01-21 20:27 METAR CYWA 212027Z AUTO 14004KT 9SM FEW020 FEW056 SCT084 SCT091 00/M06 A3011 =
2018-01-21 20:00 METAR CYWA 212000Z AUTO 13004KT 9SM BKN020 BKN056 00/M06 A3010 RMK SLP200 =
2018-01-21 19:55 METAR CYWA 211955Z AUTO 14004KT 9SM SCT020 BKN056 00/M06 A3009 =
2018-01-21 19:00 METAR CYWA 211900Z AUTO 15003KT 120V180 9SM OVC020 00/M06 A3009 RMK SLP198 =
2018-01-21 18:00 METAR CYWA 211800Z AUTO 12004KT 9SM OVC020 M00/M07 A3010 RMK SLP201 =
2018-01-21 17:00 METAR CYWA 211700Z AUTO 14002KT 9SM OVC020 M01/M07 A3011 RMK SLP205 =
2018-01-21 16:00 METAR CYWA 211600Z AUTO 10002KT 9SM OVC022 M01/M07 A3013 RMK SLP209 =
2018-01-21 15:00 METAR CYWA 211500Z AUTO 13004KT 9SM OVC022 M01/M07 A3013 RMK SLP210 =
2018-01-21 14:00 METAR CYWA 211400Z AUTO 05003KT 9SM OVC022 OVC080 M02/M07 A3011 RMK SLP204 =
2018-01-21 13:00 METAR CYWA 211300Z AUTO 06002KT 9SM OVC022 OVC054 M02/M06 A3011 RMK SLP204 =
2018-01-21 12:00 METAR CYWA 211200Z AUTO 04003KT 9SM OVC024 OVC052 M02/M07 A3009 RMK SLP197 =
2018-01-21 11:00 METAR CYWA 211100Z AUTO 05002KT 9SM OVC024 OVC055 M01/M07 A3007 RMK SLP190 =
2018-01-21 10:57 METAR CYWA 211057Z AUTO 05002KT 9SM OVC024 OVC055 M01/M07 A3006 =
2018-01-21 10:00 METAR CYWA 211000Z AUTO 00000KT 9SM OVC055 M02/M07 A3004 RMK SLP179 =
2018-01-21 09:00 METAR CYWA 210900Z AUTO 34003KT 9SM OVC028 OVC048 M01/M07 A3003 RMK SLP176 =
2018-01-21 08:00 METAR CYWA 210800Z AUTO 35003KT 9SM SCT028 OVC046 M01/M07 A3002 RMK SLP173 =
2018-01-21 07:00 METAR CYWA 210700Z AUTO 33003KT 9SM SCT035 OVC050 M01/M05 A3001 RMK SLP167 =
2018-01-21 06:00 METAR CYWA 210600Z AUTO 29003KT 9SM OVC055 M01/M05 A2998 RMK SLP159 =
2018-01-21 05:00 METAR CYWA 210500Z AUTO 32003KT 9SM OVC053 M00/M06 A2997 RMK SLP156 =
2018-01-21 04:00 METAR CYWA 210400Z AUTO 33005KT 9SM OVC046 M00/M05 A2995 RMK SLP150 =
2018-01-21 03:00 METAR CYWA 210300Z AUTO 29002KT 9SM OVC057 00/M05 A2994 RMK SLP145 =
2018-01-21 02:00 METAR CYWA 210200Z AUTO 32005KT 9SM OVC061 00/M05 A2993 RMK SLP141 =
2018-01-21 01:00 METAR CYWA 210100Z AUTO 34004KT 9SM OVC040 01/M04 A2992 RMK SLP139 =
2018-01-21 00:00 METAR CYWA 210000Z AUTO 32007KT 9SM OVC032 01/M04 A2989 RMK SLP129 =
2018-01-20 23:00 METAR CYWA 202300Z AUTO 32010KT 9SM OVC042 02/M04 A2986 RMK SLP118 =
2018-01-20 22:00 METAR CYWA 202200Z AUTO 32008KT 9SM BKN042 03/M02 A2981 RMK SLP101 =
2018-01-20 21:00 METAR CYWA 202100Z AUTO 34013KT 9SM OVC042 04/M02 A2977 RMK SLP088 =

Support USWX by starting your Amazon purchase here.